sensor_id;sensor_type;location;lat;lon;timestamp;temperature;humidity
55026;DHT22;40925;45.666;18.994;2023-03-01T00:01:30;77.40;2227.20
55026;DHT22;40925;45.666;18.994;2023-03-01T00:03:58;77.40;2227.20
55026;DHT22;40925;45.666;18.994;2023-03-01T00:06:24;77.40;2227.20
55026;DHT22;40925;45.666;18.994;2023-03-01T00:08:51;77.40;2227.20
55026;DHT22;40925;45.666;18.994;2023-03-01T00:11:19;77.40;2227.20
55026;DHT22;40925;45.666;18.994;2023-03-01T00:13:46;77.40;2227.20
55026;DHT22;40925;45.666;18.994;2023-03-01T00:16:18;77.50;2227.20
55026;DHT22;40925;45.666;18.994;2023-03-01T00:18:44;77.50;2227.20
55026;DHT22;40925;45.666;18.994;2023-03-01T00:21:10;77.50;2227.20
55026;DHT22;40925;45.666;18.994;2023-03-01T00:23:37;77.50;2227.20
55026;DHT22;40925;45.666;18.994;2023-03-01T00:26:06;77.60;2227.20
55026;DHT22;40925;45.666;18.994;2023-03-01T00:28:32;77.50;2227.20
55026;DHT22;40925;45.666;18.994;2023-03-01T00:31:10;77.50;2227.20
55026;DHT22;40925;45.666;18.994;2023-03-01T00:33:36;77.50;2227.20
55026;DHT22;40925;45.666;18.994;2023-03-01T00:36:03;77.60;2227.20
55026;DHT22;40925;45.666;18.994;2023-03-01T00:38:45;77.60;2227.20
55026;DHT22;40925;45.666;18.994;2023-03-01T00:41:14;77.60;2227.20
55026;DHT22;40925;45.666;18.994;2023-03-01T00:43:40;77.50;2227.20
55026;DHT22;40925;45.666;18.994;2023-03-01T00:46:14;77.50;2227.20
55026;DHT22;40925;45.666;18.994;2023-03-01T00:48:41;77.50;2227.20
55026;DHT22;40925;45.666;18.994;2023-03-01T00:51:22;77.60;2227.20
55026;DHT22;40925;45.666;18.994;2023-03-01T00:53:50;77.50;2227.20
55026;DHT22;40925;45.666;18.994;2023-03-01T00:56:16;77.50;2227.20
55026;DHT22;40925;45.666;18.994;2023-03-01T00:58:42;77.50;2227.20
55026;DHT22;40925;45.666;18.994;2023-03-01T01:01:29;77.50;2227.20
55026;DHT22;40925;45.666;18.994;2023-03-01T01:04:04;77.40;2227.20
55026;DHT22;40925;45.666;18.994;2023-03-01T01:06:34;77.40;2227.20
55026;DHT22;40925;45.666;18.994;2023-03-01T01:09:00;77.30;2227.20
55026;DHT22;40925;45.666;18.994;2023-03-01T01:11:28;77.40;2227.20
55026;DHT22;40925;45.666;18.994;2023-03-01T01:13:54;77.40;2227.20
55026;DHT22;40925;45.666;18.994;2023-03-01T01:16:22;77.40;2227.20
55026;DHT22;40925;45.666;18.994;2023-03-01T01:18:48;77.40;2227.20
55026;DHT22;40925;45.666;18.994;2023-03-01T01:21:19;77.40;2227.20
55026;DHT22;40925;45.666;18.994;2023-03-01T01:23:46;77.40;2227.20
55026;DHT22;40925;45.666;18.994;2023-03-01T01:26:18;77.40;2227.20
55026;DHT22;40925;45.666;18.994;2023-03-01T01:28:45;77.50;2227.20
55026;DHT22;40925;45.666;18.994;2023-03-01T01:31:11;77.50;2227.20
55026;DHT22;40925;45.666;18.994;2023-03-01T01:33:37;77.50;2227.20
55026;DHT22;40925;45.666;18.994;2023-03-01T01:36:04;77.30;2227.20
55026;DHT22;40925;45.666;18.994;2023-03-01T01:38:30;77.50;2227.20
55026;DHT22;40925;45.666;18.994;2023-03-01T01:40:56;77.50;2227.20
55026;DHT22;40925;45.666;18.994;2023-03-01T01:43:25;77.50;2227.20
55026;DHT22;40925;45.666;18.994;2023-03-01T01:45:57;77.50;2227.20
55026;DHT22;40925;45.666;18.994;2023-03-01T01:48:27;77.50;2227.20
55026;DHT22;40925;45.666;18.994;2023-03-01T01:51:09;77.50;2227.20
55026;DHT22;40925;45.666;18.994;2023-03-01T01:53:37;77.50;2227.20
55026;DHT22;40925;45.666;18.994;2023-03-01T01:56:07;77.50;2227.20
55026;DHT22;40925;45.666;18.994;2023-03-01T01:58:34;77.50;2227.20
55026;DHT22;40925;45.666;18.994;2023-03-01T02:01:01;77.50;2227.20
55026;DHT22;40925;45.666;18.994;2023-03-01T02:03:31;77.50;2227.20
55026;DHT22;40925;45.666;18.994;2023-03-01T02:06:26;77.50;2227.20
55026;DHT22;40925;45.666;18.994;2023-03-01T02:08:59;77.50;2227.20
55026;DHT22;40925;45.666;18.994;2023-03-01T02:11:27;77.50;2227.20
55026;DHT22;40925;45.666;18.994;2023-03-01T02:13:54;77.40;2227.20
55026;DHT22;40925;45.666;18.994;2023-03-01T02:16:20;102.40;2227.20
55026;DHT22;40925;45.666;18.994;2023-03-01T02:18:46;77.40;2227.20
55026;DHT22;40925;45.666;18.994;2023-03-01T02:23:59;77.40;2227.20
55026;DHT22;40925;45.666;18.994;2023-03-01T02:26:45;77.40;2227.20
55026;DHT22;40925;45.666;18.994;2023-03-01T02:29:11;77.40;2227.20
55026;DHT22;40925;45.666;18.994;2023-03-01T02:31:37;77.40;2227.20
55026;DHT22;40925;45.666;18.994;2023-03-01T02:34:18;77.40;2227.20
55026;DHT22;40925;45.666;18.994;2023-03-01T02:36:58;77.40;2227.20
55026;DHT22;40925;45.666;18.994;2023-03-01T02:39:31;77.40;2227.20
55026;DHT22;40925;45.666;18.994;2023-03-01T02:41:58;77.40;2227.20
55026;DHT22;40925;45.666;18.994;2023-03-01T02:44:25;77.40;2227.20
55026;DHT22;40925;45.666;18.994;2023-03-01T02:46:53;77.40;2227.20
55026;DHT22;40925;45.666;18.994;2023-03-01T02:54:52;77.50;2227.20
55026;DHT22;40925;45.666;18.994;2023-03-01T02:57:22;77.50;2227.20
55026;DHT22;40925;45.666;18.994;2023-03-01T02:59:50;77.40;2227.20
55026;DHT22;40925;45.666;18.994;2023-03-01T03:02:21;77.40;2227.20
55026;DHT22;40925;45.666;18.994;2023-03-01T03:05:09;77.40;2227.20
55026;DHT22;40925;45.666;18.994;2023-03-01T03:07:37;77.50;2227.20
55026;DHT22;40925;45.666;18.994;2023-03-01T03:10:06;77.40;2227.20
55026;DHT22;40925;45.666;18.994;2023-03-01T03:12:32;77.40;2227.20
55026;DHT22;40925;45.666;18.994;2023-03-01T03:14:58;77.40;2227.20
55026;DHT22;40925;45.666;18.994;2023-03-01T03:17:23;77.40;2227.20
55026;DHT22;40925;45.666;18.994;2023-03-01T03:19:49;77.40;2227.20
55026;DHT22;40925;45.666;18.994;2023-03-01T03:22:15;77.40;2227.20
55026;DHT22;40925;45.666;18.994;2023-03-01T03:24:41;77.50;2227.20
55026;DHT22;40925;45.666;18.994;2023-03-01T03:27:07;77.40;2227.20
55026;DHT22;40925;45.666;18.994;2023-03-01T03:29:33;77.50;2227.20
55026;DHT22;40925;45.666;18.994;2023-03-01T03:31:59;77.50;2227.20
55026;DHT22;40925;45.666;18.994;2023-03-01T03:34:25;77.50;2227.20
55026;DHT22;40925;45.666;18.994;2023-03-01T03:36:56;77.50;2227.20
55026;DHT22;40925;45.666;18.994;2023-03-01T03:39:28;77.50;2227.20
55026;DHT22;40925;45.666;18.994;2023-03-01T03:41:54;77.50;2227.20
55026;DHT22;40925;45.666;18.994;2023-03-01T03:44:20;77.50;2227.20
55026;DHT22;40925;45.666;18.994;2023-03-01T03:46:46;77.40;2227.20
55026;DHT22;40925;45.666;18.994;2023-03-01T03:49:12;77.50;2227.20
55026;DHT22;40925;45.666;18.994;2023-03-01T03:51:38;77.50;2227.20
55026;DHT22;40925;45.666;18.994;2023-03-01T03:54:03;77.60;2227.20
55026;DHT22;40925;45.666;18.994;2023-03-01T03:56:29;77.50;2227.20
55026;DHT22;40925;45.666;18.994;2023-03-01T03:58:55;77.50;2227.20
55026;DHT22;40925;45.666;18.994;2023-03-01T04:01:21;77.50;2227.20
55026;DHT22;40925;45.666;18.994;2023-03-01T04:03:46;77.60;2227.20
55026;DHT22;40925;45.666;18.994;2023-03-01T04:06:13;77.50;2227.20
55026;DHT22;40925;45.666;18.994;2023-03-01T04:08:39;77.60;2227.20
55026;DHT22;40925;45.666;18.994;2023-03-01T04:11:06;77.60;2227.20
55026;DHT22;40925;45.666;18.994;2023-03-01T04:13:52;77.60;2227.20
55026;DHT22;40925;45.666;18.994;2023-03-01T04:16:18;77.60;2227.20
55026;DHT22;40925;45.666;18.994;2023-03-01T04:18:44;77.60;2227.20
55026;DHT22;40925;45.666;18.994;2023-03-01T04:21:10;77.60;2227.20
55026;DHT22;40925;45.666;18.994;2023-03-01T04:23:37;77.60;2227.20
55026;DHT22;40925;45.666;18.994;2023-03-01T04:26:03;77.60;2227.20
55026;DHT22;40925;45.666;18.994;2023-03-01T04:28:39;77.60;2227.20
55026;DHT22;40925;45.666;18.994;2023-03-01T04:31:10;77.60;2227.20
55026;DHT22;40925;45.666;18.994;2023-03-01T04:33:42;77.60;2227.20
55026;DHT22;40925;45.666;18.994;2023-03-01T04:36:09;77.60;2227.20
55026;DHT22;40925;45.666;18.994;2023-03-01T04:38:37;77.60;2227.20
55026;DHT22;40925;45.666;18.994;2023-03-01T04:41:05;77.60;2227.20
55026;DHT22;40925;45.666;18.994;2023-03-01T04:43:31;77.60;2227.20
55026;DHT22;40925;45.666;18.994;2023-03-01T04:46:01;77.60;2227.20
55026;DHT22;40925;45.666;18.994;2023-03-01T04:48:29;77.60;2227.20
55026;DHT22;40925;45.666;18.994;2023-03-01T04:50:54;77.60;2227.20
55026;DHT22;40925;45.666;18.994;2023-03-01T04:53:20;77.60;2227.20
55026;DHT22;40925;45.666;18.994;2023-03-01T04:55:46;77.60;2227.20
55026;DHT22;40925;45.666;18.994;2023-03-01T04:58:11;77.60;2227.20
55026;DHT22;40925;45.666;18.994;2023-03-01T05:00:37;77.60;2227.20
55026;DHT22;40925;45.666;18.994;2023-03-01T05:03:03;77.60;2227.20
55026;DHT22;40925;45.666;18.994;2023-03-01T05:05:36;77.60;2227.20
55026;DHT22;40925;45.666;18.994;2023-03-01T05:08:06;77.60;2227.20
55026;DHT22;40925;45.666;18.994;2023-03-01T05:10:33;77.70;2227.20
55026;DHT22;40925;45.666;18.994;2023-03-01T05:13:01;77.70;2227.20
55026;DHT22;40925;45.666;18.994;2023-03-01T05:15:29;77.70;2227.20
55026;DHT22;40925;45.666;18.994;2023-03-01T05:17:57;77.70;2227.20
55026;DHT22;40925;45.666;18.994;2023-03-01T05:20:27;77.70;2227.20
55026;DHT22;40925;45.666;18.994;2023-03-01T05:22:57;77.70;2227.20
55026;DHT22;40925;45.666;18.994;2023-03-01T05:25:24;77.70;2227.20
55026;DHT22;40925;45.666;18.994;2023-03-01T05:27:50;77.70;2227.20
55026;DHT22;40925;45.666;18.994;2023-03-01T05:30:17;77.60;2227.20
55026;DHT22;40925;45.666;18.994;2023-03-01T05:32:45;77.60;2227.20
55026;DHT22;40925;45.666;18.994;2023-03-01T05:35:16;77.70;2227.20
55026;DHT22;40925;45.666;18.994;2023-03-01T05:37:43;77.70;2227.20
55026;DHT22;40925;45.666;18.994;2023-03-01T05:40:44;77.70;2227.20
55026;DHT22;40925;45.666;18.994;2023-03-01T05:43:11;102.40;2227.20
55026;DHT22;40925;45.666;18.994;2023-03-01T05:45:38;102.40;2227.20
55026;DHT22;40925;45.666;18.994;2023-03-01T05:48:05;102.40;2227.20
55026;DHT22;40925;45.666;18.994;2023-03-01T05:50:37;102.50;2227.20
55026;DHT22;40925;45.666;18.994;2023-03-01T05:53:05;102.50;2227.20
55026;DHT22;40925;45.666;18.994;2023-03-01T05:55:31;102.40;2227.20
55026;DHT22;40925;45.666;18.994;2023-03-01T05:58:10;102.50;2227.20
55026;DHT22;40925;45.666;18.994;2023-03-01T06:00:36;102.50;2227.20
55026;DHT22;40925;45.666;18.994;2023-03-01T06:03:02;102.70;2227.20
55026;DHT22;40925;45.666;18.994;2023-03-01T06:05:29;102.50;2227.20
55026;DHT22;40925;45.666;18.994;2023-03-01T06:07:55;102.50;2227.20
55026;DHT22;40925;45.666;18.994;2023-03-01T06:13:36;102.50;2227.20
55026;DHT22;40925;45.666;18.994;2023-03-01T06:16:05;102.40;2227.20
55026;DHT22;40925;45.666;18.994;2023-03-01T06:18:31;102.50;2227.20
55026;DHT22;40925;45.666;18.994;2023-03-01T06:20:57;102.50;2227.20
55026;DHT22;40925;45.666;18.994;2023-03-01T06:23:23;102.50;2227.20
55026;DHT22;40925;45.666;18.994;2023-03-01T06:25:49;102.50;2227.20
55026;DHT22;40925;45.666;18.994;2023-03-01T06:28:15;102.50;2227.20
55026;DHT22;40925;45.666;18.994;2023-03-01T06:30:40;102.50;2227.20
55026;DHT22;40925;45.666;18.994;2023-03-01T06:33:06;102.50;2227.20
55026;DHT22;40925;45.666;18.994;2023-03-01T06:35:32;102.50;2227.20
55026;DHT22;40925;45.666;18.994;2023-03-01T06:37:59;102.60;2227.20
55026;DHT22;40925;45.666;18.994;2023-03-01T06:40:26;102.70;2227.20
55026;DHT22;40925;45.666;18.994;2023-03-01T06:42:52;102.60;2227.20
55026;DHT22;40925;45.666;18.994;2023-03-01T06:45:19;102.60;2227.20
55026;DHT22;40925;45.666;18.994;2023-03-01T06:47:45;102.50;2227.20
55026;DHT22;40925;45.666;18.994;2023-03-01T06:50:12;102.50;2227.20
55026;DHT22;40925;45.666;18.994;2023-03-01T06:52:38;102.50;2227.20
55026;DHT22;40925;45.666;18.994;2023-03-01T06:55:05;102.60;2227.20
55026;DHT22;40925;45.666;18.994;2023-03-01T06:57:31;102.60;2227.20
55026;DHT22;40925;45.666;18.994;2023-03-01T06:59:57;102.60;2227.20
55026;DHT22;40925;45.666;18.994;2023-03-01T07:02:23;102.60;2227.20
55026;DHT22;40925;45.666;18.994;2023-03-01T07:04:50;102.70;2227.20
55026;DHT22;40925;45.666;18.994;2023-03-01T07:07:16;102.90;2227.20
55026;DHT22;40925;45.666;18.994;2023-03-01T07:09:44;102.80;2227.20
55026;DHT22;40925;45.666;18.994;2023-03-01T07:12:10;102.70;2227.20
55026;DHT22;40925;45.666;18.994;2023-03-01T07:14:36;102.80;2227.20
55026;DHT22;40925;45.666;18.994;2023-03-01T07:17:02;102.80;2227.20
55026;DHT22;40925;45.666;18.994;2023-03-01T07:19:28;102.80;2227.20
55026;DHT22;40925;45.666;18.994;2023-03-01T07:21:53;102.80;2227.20
55026;DHT22;40925;45.666;18.994;2023-03-01T07:24:21;102.90;2227.20
55026;DHT22;40925;45.666;18.994;2023-03-01T07:26:50;102.80;2227.20
55026;DHT22;40925;45.666;18.994;2023-03-01T07:29:16;102.80;2227.20
55026;DHT22;40925;45.666;18.994;2023-03-01T07:31:42;102.90;2227.20
55026;DHT22;40925;45.666;18.994;2023-03-01T07:34:08;102.90;2227.20
55026;DHT22;40925;45.666;18.994;2023-03-01T07:36:34;102.90;2227.20
55026;DHT22;40925;45.666;18.994;2023-03-01T07:38:59;102.90;2227.20
55026;DHT22;40925;45.666;18.994;2023-03-01T07:41:27;103.10;2227.20
55026;DHT22;40925;45.666;18.994;2023-03-01T07:43:53;103.00;2227.20
55026;DHT22;40925;45.666;18.994;2023-03-01T07:46:19;103.00;2227.20
55026;DHT22;40925;45.666;18.994;2023-03-01T07:48:45;103.10;2227.20
55026;DHT22;40925;45.666;18.994;2023-03-01T07:51:11;103.10;2227.20
55026;DHT22;40925;45.666;18.994;2023-03-01T07:53:37;103.10;2227.20
55026;DHT22;40925;45.666;18.994;2023-03-01T07:56:12;103.10;2227.20
55026;DHT22;40925;45.666;18.994;2023-03-01T07:58:40;103.10;2227.20
55026;DHT22;40925;45.666;18.994;2023-03-01T08:01:08;103.20;2227.20
55026;DHT22;40925;45.666;18.994;2023-03-01T08:03:35;103.30;2227.20
55026;DHT22;40925;45.666;18.994;2023-03-01T08:06:05;103.20;2227.20
55026;DHT22;40925;45.666;18.994;2023-03-01T08:08:31;103.20;2227.20
55026;DHT22;40925;45.666;18.994;2023-03-01T08:10:58;103.20;2227.20
55026;DHT22;40925;45.666;18.994;2023-03-01T08:13:25;103.20;2227.20
55026;DHT22;40925;45.666;18.994;2023-03-01T08:15:51;103.20;2227.20
55026;DHT22;40925;45.666;18.994;2023-03-01T08:18:18;103.30;2227.20
55026;DHT22;40925;45.666;18.994;2023-03-01T08:20:44;103.30;2227.20
55026;DHT22;40925;45.666;18.994;2023-03-01T08:23:10;103.20;2227.20
55026;DHT22;40925;45.666;18.994;2023-03-01T08:25:36;103.30;2227.20
55026;DHT22;40925;45.666;18.994;2023-03-01T08:33:48;128.10;2252.80
55026;DHT22;40925;45.666;18.994;2023-03-01T08:36:17;128.00;2252.80
55026;DHT22;40925;45.666;18.994;2023-03-01T08:38:43;128.00;2252.80
55026;DHT22;40925;45.666;18.994;2023-03-01T08:41:09;128.00;2252.80
55026;DHT22;40925;45.666;18.994;2023-03-01T08:43:35;128.00;2252.80
55026;DHT22;40925;45.666;18.994;2023-03-01T08:46:00;128.10;2252.80
55026;DHT22;40925;45.666;18.994;2023-03-01T08:48:28;128.10;2252.80
55026;DHT22;40925;45.666;18.994;2023-03-01T08:50:54;128.10;2252.80
55026;DHT22;40925;45.666;18.994;2023-03-01T08:53:19;128.10;2252.80
55026;DHT22;40925;45.666;18.994;2023-03-01T08:55:45;128.10;2252.80
55026;DHT22;40925;45.666;18.994;2023-03-01T08:58:26;128.10;2252.80
55026;DHT22;40925;45.666;18.994;2023-03-01T09:00:51;128.20;2252.80
55026;DHT22;40925;45.666;18.994;2023-03-01T09:03:17;128.20;2252.80
55026;DHT22;40925;45.666;18.994;2023-03-01T09:05:43;128.30;2252.80
55026;DHT22;40925;45.666;18.994;2023-03-01T09:08:11;128.30;2252.80
55026;DHT22;40925;45.666;18.994;2023-03-01T09:10:39;128.40;2252.80
55026;DHT22;40925;45.666;18.994;2023-03-01T09:13:42;128.40;2252.80
55026;DHT22;40925;45.666;18.994;2023-03-01T09:16:09;128.50;2252.80
55026;DHT22;40925;45.666;18.994;2023-03-01T09:18:35;128.50;2176.00
55026;DHT22;40925;45.666;18.994;2023-03-01T09:21:10;128.50;2252.80
55026;DHT22;40925;45.666;18.994;2023-03-01T09:23:37;128.60;2252.80
55026;DHT22;40925;45.666;18.994;2023-03-01T09:26:05;128.60;2252.80
55026;DHT22;40925;45.666;18.994;2023-03-01T09:28:31;128.70;1868.80
55026;DHT22;40925;45.666;18.994;2023-03-01T09:30:59;128.70;2252.80
55026;DHT22;40925;45.666;18.994;2023-03-01T09:33:27;128.80;2252.80
55026;DHT22;40925;45.666;18.994;2023-03-01T09:36:00;128.80;2252.80
55026;DHT22;40925;45.666;18.994;2023-03-01T09:38:26;128.80;2252.80
55026;DHT22;40925;45.666;18.994;2023-03-01T09:40:52;128.90;2252.80
55026;DHT22;40925;45.666;18.994;2023-03-01T09:43:47;128.90;2252.80
55026;DHT22;40925;45.666;18.994;2023-03-01T09:46:20;153.60;2252.80
55026;DHT22;40925;45.666;18.994;2023-03-01T09:48:57;153.70;2252.80
55026;DHT22;40925;45.666;18.994;2023-03-01T09:51:29;153.70;2252.80
55026;DHT22;40925;45.666;18.994;2023-03-01T09:53:56;153.90;2252.80
55026;DHT22;40925;45.666;18.994;2023-03-01T09:59:41;154.10;2252.80
55026;DHT22;40925;45.666;18.994;2023-03-01T10:02:49;154.30;2252.80
55026;DHT22;40925;45.666;18.994;2023-03-01T10:05:31;154.50;2252.80
55026;DHT22;40925;45.666;18.994;2023-03-01T10:10:43;179.20;2252.80
55026;DHT22;40925;45.666;18.994;2023-03-01T10:13:21;179.20;2252.80
55026;DHT22;40925;45.666;18.994;2023-03-01T10:15:55;179.20;2252.80
55026;DHT22;40925;45.666;18.994;2023-03-01T10:18:27;179.50;2252.80
55026;DHT22;40925;45.666;18.994;2023-03-01T10:21:05;179.80;2252.80
55026;DHT22;40925;45.666;18.994;2023-03-01T10:23:35;179.60;2252.80
55026;DHT22;40925;45.666;18.994;2023-03-01T10:29:08;179.70;2252.80
55026;DHT22;40925;45.666;18.994;2023-03-01T10:31:44;179.80;2252.80
55026;DHT22;40925;45.666;18.994;2023-03-01T10:34:14;179.90;2252.80
55026;DHT22;40925;45.666;18.994;2023-03-01T10:36:42;179.90;2252.80
55026;DHT22;40925;45.666;18.994;2023-03-01T10:39:23;179.80;2252.80
55026;DHT22;40925;45.666;18.994;2023-03-01T10:44:44;180.00;2252.80
55026;DHT22;40925;45.666;18.994;2023-03-01T10:47:25;179.90;2252.80
55026;DHT22;40925;45.666;18.994;2023-03-01T10:50:04;180.00;2252.80
55026;DHT22;40925;45.666;18.994;2023-03-01T10:52:35;180.00;2252.80
55026;DHT22;40925;45.666;18.994;2023-03-01T10:55:39;180.10;2252.80
55026;DHT22;40925;45.666;18.994;2023-03-01T11:00:52;204.80;2252.80
55026;DHT22;40925;45.666;18.994;2023-03-01T11:03:23;204.80;2252.80
55026;DHT22;40925;45.666;18.994;2023-03-01T11:08:43;204.80;2252.80
55026;DHT22;40925;45.666;18.994;2023-03-01T11:13:54;204.90;2252.80
55026;DHT22;40925;45.666;18.994;2023-03-01T11:16:25;204.80;2252.80
55026;DHT22;40925;45.666;18.994;2023-03-01T11:19:06;204.80;2252.80
55026;DHT22;40925;45.666;18.994;2023-03-01T11:22:01;204.80;2252.80
55026;DHT22;40925;45.666;18.994;2023-03-01T11:24:48;204.80;2252.80
55026;DHT22;40925;45.666;18.994;2023-03-01T11:27:32;205.00;2252.80
55026;DHT22;40925;45.666;18.994;2023-03-01T11:30:05;205.10;2252.80
55026;DHT22;40925;45.666;18.994;2023-03-01T11:32:40;205.10;2252.80
55026;DHT22;40925;45.666;18.994;2023-03-01T11:35:20;205.10;2252.80
55026;DHT22;40925;45.666;18.994;2023-03-01T11:40:39;205.10;2252.80
55026;DHT22;40925;45.666;18.994;2023-03-01T11:48:48;205.20;2252.80
55026;DHT22;40925;45.666;18.994;2023-03-01T11:51:24;205.20;2252.80
55026;DHT22;40925;45.666;18.994;2023-03-01T11:54:18;205.20;2252.80
55026;DHT22;40925;45.666;18.994;2023-03-01T11:56:50;205.10;2252.80
55026;DHT22;40925;45.666;18.994;2023-03-01T12:08:01;205.20;2252.80
55026;DHT22;40925;45.666;18.994;2023-03-01T12:10:58;205.20;2252.80
55026;DHT22;40925;45.666;18.994;2023-03-01T12:24:34;205.30;2252.80
55026;DHT22;40925;45.666;18.994;2023-03-01T12:35:16;205.30;2252.80
55026;DHT22;40925;45.666;18.994;2023-03-01T12:46:52;205.00;2252.80
55026;DHT22;40925;45.666;18.994;2023-03-01T12:49:13;204.90;2099.20
55026;DHT22;40925;45.666;18.994;2023-03-01T12:51:40;204.80;2252.80
55026;DHT22;40925;45.666;18.994;2023-03-01T12:54:31;180.10;2252.80
55026;DHT22;40925;45.666;18.994;2023-03-01T12:57:09;180.10;2252.80
55026;DHT22;40925;45.666;18.994;2023-03-01T13:02:38;180.10;2252.80
55026;DHT22;40925;45.666;18.994;2023-03-01T13:05:23;180.10;2252.80
55026;DHT22;40925;45.666;18.994;2023-03-01T13:10:53;180.10;2252.80
55026;DHT22;40925;45.666;18.994;2023-03-01T13:13:23;180.10;2150.40
55026;DHT22;40925;45.666;18.994;2023-03-01T13:15:50;204.80;2252.80
55026;DHT22;40925;45.666;18.994;2023-03-01T13:20:59;204.80;2252.80
55026;DHT22;40925;45.666;18.994;2023-03-01T13:23:31;204.80;2252.80
55026;DHT22;40925;45.666;18.994;2023-03-01T13:28:48;204.80;2252.80
55026;DHT22;40925;45.666;18.994;2023-03-01T13:33:43;204.90;2252.80
55026;DHT22;40925;45.666;18.994;2023-03-01T13:36:10;204.90;2252.80
55026;DHT22;40925;45.666;18.994;2023-03-01T13:41:15;205.10;2252.80
55026;DHT22;40925;45.666;18.994;2023-03-01T13:43:43;205.10;2227.20
55026;DHT22;40925;45.666;18.994;2023-03-01T13:46:21;205.10;1996.80
55026;DHT22;40925;45.666;18.994;2023-03-01T13:48:52;205.10;2252.80
55026;DHT22;40925;45.666;18.994;2023-03-01T13:51:26;205.00;2252.80
55026;DHT22;40925;45.666;18.994;2023-03-01T13:53:54;205.10;2252.80
55026;DHT22;40925;45.666;18.994;2023-03-01T13:56:27;205.00;2252.80
55026;DHT22;40925;45.666;18.994;2023-03-01T13:59:05;205.00;2252.80
55026;DHT22;40925;45.666;18.994;2023-03-01T14:01:34;205.00;2252.80
55026;DHT22;40925;45.666;18.994;2023-03-01T14:04:02;205.10;2176.00
55026;DHT22;40925;45.666;18.994;2023-03-01T14:06:33;205.00;2176.00
55026;DHT22;40925;45.666;18.994;2023-03-01T14:09:26;205.10;2252.80
55026;DHT22;40925;45.666;18.994;2023-03-01T14:17:24;205.00;2252.80
55026;DHT22;40925;45.666;18.994;2023-03-01T14:19:57;205.00;2252.80
55026;DHT22;40925;45.666;18.994;2023-03-01T14:22:25;205.00;2252.80
55026;DHT22;40925;45.666;18.994;2023-03-01T14:25:01;205.00;2252.80
55026;DHT22;40925;45.666;18.994;2023-03-01T14:27:38;205.10;2252.80
55026;DHT22;40925;45.666;18.994;2023-03-01T14:30:21;205.10;2252.80
55026;DHT22;40925;45.666;18.994;2023-03-01T14:33:01;205.10;2252.80
55026;DHT22;40925;45.666;18.994;2023-03-01T14:35:33;205.10;2252.80
55026;DHT22;40925;45.666;18.994;2023-03-01T14:37:59;205.10;2252.80
55026;DHT22;40925;45.666;18.994;2023-03-01T14:40:28;205.10;2252.80
55026;DHT22;40925;45.666;18.994;2023-03-01T14:42:57;205.10;2252.80
55026;DHT22;40925;45.666;18.994;2023-03-01T14:45:25;205.20;2252.80
55026;DHT22;40925;45.666;18.994;2023-03-01T14:47:52;205.20;2252.80
55026;DHT22;40925;45.666;18.994;2023-03-01T14:50:32;205.20;2252.80
55026;DHT22;40925;45.666;18.994;2023-03-01T14:53:04;205.20;2252.80
55026;DHT22;40925;45.666;18.994;2023-03-01T14:55:40;205.20;2252.80
55026;DHT22;40925;45.666;18.994;2023-03-01T14:58:12;205.20;2252.80
55026;DHT22;40925;45.666;18.994;2023-03-01T15:00:40;205.20;2252.80
55026;DHT22;40925;45.666;18.994;2023-03-01T15:03:17;205.20;2252.80
55026;DHT22;40925;45.666;18.994;2023-03-01T15:05:45;205.10;2252.80
55026;DHT22;40925;45.666;18.994;2023-03-01T15:08:19;205.10;2252.80
55026;DHT22;40925;45.666;18.994;2023-03-01T15:11:17;205.10;2252.80
55026;DHT22;40925;45.666;18.994;2023-03-01T15:13:43;205.20;2124.80
55026;DHT22;40925;45.666;18.994;2023-03-01T15:16:19;205.20;2252.80
55026;DHT22;40925;45.666;18.994;2023-03-01T15:19:00;205.20;2252.80
55026;DHT22;40925;45.666;18.994;2023-03-01T15:21:29;205.30;2252.80
55026;DHT22;40925;45.666;18.994;2023-03-01T15:24:26;205.30;2252.80
55026;DHT22;40925;45.666;18.994;2023-03-01T15:27:00;205.40;2252.80
55026;DHT22;40925;45.666;18.994;2023-03-01T15:29:33;205.30;2252.80
55026;DHT22;40925;45.666;18.994;2023-03-01T15:32:29;205.30;2048.00
55026;DHT22;40925;45.666;18.994;2023-03-01T15:34:57;205.20;1945.60
55026;DHT22;40925;45.666;18.994;2023-03-01T15:37:45;205.20;1996.80
55026;DHT22;40925;45.666;18.994;2023-03-01T15:40:25;205.20;2252.80
55026;DHT22;40925;45.666;18.994;2023-03-01T15:42:58;205.20;2252.80
55026;DHT22;40925;45.666;18.994;2023-03-01T15:45:27;205.10;2252.80
55026;DHT22;40925;45.666;18.994;2023-03-01T15:48:14;205.10;2252.80
55026;DHT22;40925;45.666;18.994;2023-03-01T15:50:40;205.10;2252.80
55026;DHT22;40925;45.666;18.994;2023-03-01T15:53:12;205.10;2252.80
55026;DHT22;40925;45.666;18.994;2023-03-01T15:55:40;205.10;2252.80
55026;DHT22;40925;45.666;18.994;2023-03-01T15:58:09;205.20;2252.80
55026;DHT22;40925;45.666;18.994;2023-03-01T16:00:35;205.20;2252.80
55026;DHT22;40925;45.666;18.994;2023-03-01T16:03:01;205.20;2252.80
55026;DHT22;40925;45.666;18.994;2023-03-01T16:05:29;205.20;2252.80
55026;DHT22;40925;45.666;18.994;2023-03-01T16:07:56;205.20;2176.00
55026;DHT22;40925;45.666;18.994;2023-03-01T16:10:22;205.20;2252.80
55026;DHT22;40925;45.666;18.994;2023-03-01T16:12:49;205.30;2252.80
55026;DHT22;40925;45.666;18.994;2023-03-01T16:15:22;205.30;2048.00
55026;DHT22;40925;45.666;18.994;2023-03-01T16:17:49;205.20;2252.80
55026;DHT22;40925;45.666;18.994;2023-03-01T16:20:15;205.20;2022.40
55026;DHT22;40925;45.666;18.994;2023-03-01T16:22:42;205.30;1971.20
55026;DHT22;40925;45.666;18.994;2023-03-01T16:25:10;205.30;2252.80
55026;DHT22;40925;45.666;18.994;2023-03-01T16:31:24;205.30;1996.80
55026;DHT22;40925;45.666;18.994;2023-03-01T16:33:57;205.30;2252.80
55026;DHT22;40925;45.666;18.994;2023-03-01T16:36:25;205.30;2252.80
55026;DHT22;40925;45.666;18.994;2023-03-01T16:38:52;205.30;2252.80
55026;DHT22;40925;45.666;18.994;2023-03-01T16:41:19;205.30;2252.80
55026;DHT22;40925;45.666;18.994;2023-03-01T16:44:04;205.30;2252.80
55026;DHT22;40925;45.666;18.994;2023-03-01T16:46:29;205.40;2252.80
55026;DHT22;40925;45.666;18.994;2023-03-01T16:48:55;205.30;1996.80